sensor_id;sensor_type;location;lat;lon;timestamp;temperature;humidity
20045;DHT22;10183;47.808;9.476;2022-09-02T00:01:53;12.30;99.90
20045;DHT22;10183;47.808;9.476;2022-09-02T00:04:22;12.30;99.90
20045;DHT22;10183;47.808;9.476;2022-09-02T00:06:50;12.30;99.90
20045;DHT22;10183;47.808;9.476;2022-09-02T00:09:18;12.40;99.90
20045;DHT22;10183;47.808;9.476;2022-09-02T00:11:46;12.40;99.90
20045;DHT22;10183;47.808;9.476;2022-09-02T00:14:25;12.40;99.90
20045;DHT22;10183;47.808;9.476;2022-09-02T00:16:52;12.40;99.90
20045;DHT22;10183;47.808;9.476;2022-09-02T00:19:23;12.30;99.90
20045;DHT22;10183;47.808;9.476;2022-09-02T00:21:51;12.30;99.90
20045;DHT22;10183;47.808;9.476;2022-09-02T00:24:18;12.20;99.90
20045;DHT22;10183;47.808;9.476;2022-09-02T00:26:44;12.20;99.90
20045;DHT22;10183;47.808;9.476;2022-09-02T00:29:11;12.10;99.90
20045;DHT22;10183;47.808;9.476;2022-09-02T00:31:40;12.00;99.90
20045;DHT22;10183;47.808;9.476;2022-09-02T00:34:08;12.00;99.90
20045;DHT22;10183;47.808;9.476;2022-09-02T00:36:35;12.00;99.90
20045;DHT22;10183;47.808;9.476;2022-09-02T00:39:02;11.90;99.90
20045;DHT22;10183;47.808;9.476;2022-09-02T00:41:29;11.90;99.90
20045;DHT22;10183;47.808;9.476;2022-09-02T00:44:03;11.80;99.90
20045;DHT22;10183;47.808;9.476;2022-09-02T00:46:32;11.90;99.90
20045;DHT22;10183;47.808;9.476;2022-09-02T00:49:24;11.80;99.90
20045;DHT22;10183;47.808;9.476;2022-09-02T00:51:54;11.80;99.90
20045;DHT22;10183;47.808;9.476;2022-09-02T00:54:23;11.80;99.90
20045;DHT22;10183;47.808;9.476;2022-09-02T00:56:51;11.80;99.90
20045;DHT22;10183;47.808;9.476;2022-09-02T01:02:07;11.70;99.90
20045;DHT22;10183;47.808;9.476;2022-09-02T01:04:34;11.70;99.90
20045;DHT22;10183;47.808;9.476;2022-09-02T01:07:00;11.70;99.90
20045;DHT22;10183;47.808;9.476;2022-09-02T01:09:28;11.70;99.90
20045;DHT22;10183;47.808;9.476;2022-09-02T01:11:56;11.70;99.90
20045;DHT22;10183;47.808;9.476;2022-09-02T01:14:23;11.70;99.90
20045;DHT22;10183;47.808;9.476;2022-09-02T01:16:55;11.60;99.90
20045;DHT22;10183;47.808;9.476;2022-09-02T01:19:39;11.50;99.90
20045;DHT22;10183;47.808;9.476;2022-09-02T01:22:28;11.60;99.90
20045;DHT22;10183;47.808;9.476;2022-09-02T01:24:57;11.50;99.90
20045;DHT22;10183;47.808;9.476;2022-09-02T01:27:25;11.50;99.90
20045;DHT22;10183;47.808;9.476;2022-09-02T01:29:54;11.50;99.90
20045;DHT22;10183;47.808;9.476;2022-09-02T01:32:21;11.50;99.90
20045;DHT22;10183;47.808;9.476;2022-09-02T01:34:48;11.40;99.90
20045;DHT22;10183;47.808;9.476;2022-09-02T01:37:14;11.40;99.90
20045;DHT22;10183;47.808;9.476;2022-09-02T01:39:40;11.40;99.90
20045;DHT22;10183;47.808;9.476;2022-09-02T01:42:07;11.40;99.90
20045;DHT22;10183;47.808;9.476;2022-09-02T01:44:34;11.40;99.90
20045;DHT22;10183;47.808;9.476;2022-09-02T01:47:03;11.40;99.90
20045;DHT22;10183;47.808;9.476;2022-09-02T01:49:29;11.40;99.90
20045;DHT22;10183;47.808;9.476;2022-09-02T01:51:56;11.40;99.90
20045;DHT22;10183;47.808;9.476;2022-09-02T01:54:22;11.40;99.90
20045;DHT22;10183;47.808;9.476;2022-09-02T01:56:48;11.20;99.90
20045;DHT22;10183;47.808;9.476;2022-09-02T01:59:14;11.10;99.90
20045;DHT22;10183;47.808;9.476;2022-09-02T02:01:43;11.10;99.90
20045;DHT22;10183;47.808;9.476;2022-09-02T02:04:11;11.10;99.90
20045;DHT22;10183;47.808;9.476;2022-09-02T02:06:42;11.10;99.90
20045;DHT22;10183;47.808;9.476;2022-09-02T02:09:09;11.00;99.90
20045;DHT22;10183;47.808;9.476;2022-09-02T02:11:36;11.00;99.90
20045;DHT22;10183;47.808;9.476;2022-09-02T02:14:03;11.10;99.90
20045;DHT22;10183;47.808;9.476;2022-09-02T02:16:29;11.10;99.90
20045;DHT22;10183;47.808;9.476;2022-09-02T02:18:57;11.10;99.90
20045;DHT22;10183;47.808;9.476;2022-09-02T02:21:23;11.10;99.90
20045;DHT22;10183;47.808;9.476;2022-09-02T02:23:49;11.10;99.90
20045;DHT22;10183;47.808;9.476;2022-09-02T02:26:16;11.20;99.90
20045;DHT22;10183;47.808;9.476;2022-09-02T02:28:42;11.20;99.90
20045;DHT22;10183;47.808;9.476;2022-09-02T02:31:08;11.20;99.90
20045;DHT22;10183;47.808;9.476;2022-09-02T02:33:35;11.20;99.90
20045;DHT22;10183;47.808;9.476;2022-09-02T02:36:05;11.30;99.90
20045;DHT22;10183;47.808;9.476;2022-09-02T02:38:33;11.20;99.90
20045;DHT22;10183;47.808;9.476;2022-09-02T02:40:59;11.20;99.90
20045;DHT22;10183;47.808;9.476;2022-09-02T02:43:26;11.20;99.90
20045;DHT22;10183;47.808;9.476;2022-09-02T02:45:53;11.20;99.90
20045;DHT22;10183;47.808;9.476;2022-09-02T02:48:20;11.20;99.90
20045;DHT22;10183;47.808;9.476;2022-09-02T02:50:46;11.20;99.90
20045;DHT22;10183;47.808;9.476;2022-09-02T02:53:13;11.20;99.90
20045;DHT22;10183;47.808;9.476;2022-09-02T02:55:39;11.10;99.90
20045;DHT22;10183;47.808;9.476;2022-09-02T02:58:06;11.10;99.90
20045;DHT22;10183;47.808;9.476;2022-09-02T03:00:33;11.10;99.90
20045;DHT22;10183;47.808;9.476;2022-09-02T03:03:03;11.10;99.90
20045;DHT22;10183;47.808;9.476;2022-09-02T03:05:30;11.00;99.90
20045;DHT22;10183;47.808;9.476;2022-09-02T03:07:56;11.10;99.90
20045;DHT22;10183;47.808;9.476;2022-09-02T03:10:23;11.10;99.90
20045;DHT22;10183;47.808;9.476;2022-09-02T03:12:50;11.10;99.90
20045;DHT22;10183;47.808;9.476;2022-09-02T03:15:18;11.00;99.90
20045;DHT22;10183;47.808;9.476;2022-09-02T03:17:46;11.00;99.90
20045;DHT22;10183;47.808;9.476;2022-09-02T03:20:13;11.00;99.90
20045;DHT22;10183;47.808;9.476;2022-09-02T03:22:45;10.90;99.90
20045;DHT22;10183;47.808;9.476;2022-09-02T03:25:15;10.90;99.90
20045;DHT22;10183;47.808;9.476;2022-09-02T03:27:42;10.80;99.90
20045;DHT22;10183;47.808;9.476;2022-09-02T03:30:14;10.70;99.90
20045;DHT22;10183;47.808;9.476;2022-09-02T03:32:41;10.60;99.90
20045;DHT22;10183;47.808;9.476;2022-09-02T03:35:13;10.70;99.90
20045;DHT22;10183;47.808;9.476;2022-09-02T03:37:40;10.70;99.90
20045;DHT22;10183;47.808;9.476;2022-09-02T03:40:10;10.70;99.90
20045;DHT22;10183;47.808;9.476;2022-09-02T03:42:36;10.70;99.90
20045;DHT22;10183;47.808;9.476;2022-09-02T03:45:04;10.80;99.90
20045;DHT22;10183;47.808;9.476;2022-09-02T03:47:32;10.80;99.90
20045;DHT22;10183;47.808;9.476;2022-09-02T03:49:58;10.80;99.90
20045;DHT22;10183;47.808;9.476;2022-09-02T03:52:25;10.80;99.90
20045;DHT22;10183;47.808;9.476;2022-09-02T03:54:51;10.70;99.90
20045;DHT22;10183;47.808;9.476;2022-09-02T03:57:17;10.70;99.90
20045;DHT22;10183;47.808;9.476;2022-09-02T03:59:45;10.70;99.90
20045;DHT22;10183;47.808;9.476;2022-09-02T04:02:11;10.70;99.90
20045;DHT22;10183;47.808;9.476;2022-09-02T04:04:37;10.70;99.90
20045;DHT22;10183;47.808;9.476;2022-09-02T04:07:03;10.70;99.90
20045;DHT22;10183;47.808;9.476;2022-09-02T04:09:30;10.70;99.90
20045;DHT22;10183;47.808;9.476;2022-09-02T04:11:56;10.70;99.90
20045;DHT22;10183;47.808;9.476;2022-09-02T04:14:22;10.60;99.90
20045;DHT22;10183;47.808;9.476;2022-09-02T04:16:49;10.50;99.90
20045;DHT22;10183;47.808;9.476;2022-09-02T04:19:15;10.50;99.90
20045;DHT22;10183;47.808;9.476;2022-09-02T04:21:41;10.50;99.90
20045;DHT22;10183;47.808;9.476;2022-09-02T04:24:08;10.50;99.90
20045;DHT22;10183;47.808;9.476;2022-09-02T04:26:35;10.50;99.90
20045;DHT22;10183;47.808;9.476;2022-09-02T04:29:03;10.40;99.90
20045;DHT22;10183;47.808;9.476;2022-09-02T04:31:29;10.40;99.90
20045;DHT22;10183;47.808;9.476;2022-09-02T04:33:57;10.30;99.90
20045;DHT22;10183;47.808;9.476;2022-09-02T04:36:24;10.30;99.90
20045;DHT22;10183;47.808;9.476;2022-09-02T04:38:51;10.20;99.90
20045;DHT22;10183;47.808;9.476;2022-09-02T04:41:21;10.20;99.90
20045;DHT22;10183;47.808;9.476;2022-09-02T04:43:48;10.20;99.90
20045;DHT22;10183;47.808;9.476;2022-09-02T04:46:15;10.20;99.90
20045;DHT22;10183;47.808;9.476;2022-09-02T04:48:42;10.20;99.90
20045;DHT22;10183;47.808;9.476;2022-09-02T04:51:12;10.20;99.90
20045;DHT22;10183;47.808;9.476;2022-09-02T04:53:39;10.20;99.90
20045;DHT22;10183;47.808;9.476;2022-09-02T04:56:07;10.10;99.90
20045;DHT22;10183;47.808;9.476;2022-09-02T04:58:34;10.10;99.90
20045;DHT22;10183;47.808;9.476;2022-09-02T05:01:14;10.20;99.90
20045;DHT22;10183;47.808;9.476;2022-09-02T05:03:41;10.20;99.90
20045;DHT22;10183;47.808;9.476;2022-09-02T05:06:10;10.20;99.90
20045;DHT22;10183;47.808;9.476;2022-09-02T05:08:36;10.30;99.90
20045;DHT22;10183;47.808;9.476;2022-09-02T05:11:10;10.40;99.90
20045;DHT22;10183;47.808;9.476;2022-09-02T05:13:39;10.40;99.90
20045;DHT22;10183;47.808;9.476;2022-09-02T05:16:06;10.40;99.90
20045;DHT22;10183;47.808;9.476;2022-09-02T05:18:32;10.50;99.90
20045;DHT22;10183;47.808;9.476;2022-09-02T05:21:02;10.50;99.90
20045;DHT22;10183;47.808;9.476;2022-09-02T05:23:29;10.50;99.90
20045;DHT22;10183;47.808;9.476;2022-09-02T05:25:55;10.60;99.90
20045;DHT22;10183;47.808;9.476;2022-09-02T05:28:21;10.60;99.90
20045;DHT22;10183;47.808;9.476;2022-09-02T05:30:47;10.60;99.90
20045;DHT22;10183;47.808;9.476;2022-09-02T05:33:13;10.50;99.90
20045;DHT22;10183;47.808;9.476;2022-09-02T05:35:41;10.60;99.90
20045;DHT22;10183;47.808;9.476;2022-09-02T05:38:07;10.60;99.90
20045;DHT22;10183;47.808;9.476;2022-09-02T05:40:36;10.60;99.90
20045;DHT22;10183;47.808;9.476;2022-09-02T05:43:05;10.70;99.90
20045;DHT22;10183;47.808;9.476;2022-09-02T05:45:32;10.70;99.90
20045;DHT22;10183;47.808;9.476;2022-09-02T05:47:59;10.70;99.90
20045;DHT22;10183;47.808;9.476;2022-09-02T05:50:45;10.80;99.90
20045;DHT22;10183;47.808;9.476;2022-09-02T05:53:11;10.80;99.90
20045;DHT22;10183;47.808;9.476;2022-09-02T05:55:37;10.90;99.90
20045;DHT22;10183;47.808;9.476;2022-09-02T05:58:03;10.90;99.90
20045;DHT22;10183;47.808;9.476;2022-09-02T06:00:29;11.00;99.90
20045;DHT22;10183;47.808;9.476;2022-09-02T06:02:56;11.00;99.90
20045;DHT22;10183;47.808;9.476;2022-09-02T06:05:22;11.20;99.90
20045;DHT22;10183;47.808;9.476;2022-09-02T06:07:48;11.20;99.90
20045;DHT22;10183;47.808;9.476;2022-09-02T06:10:14;11.30;99.90
20045;DHT22;10183;47.808;9.476;2022-09-02T06:12:40;11.40;99.90
20045;DHT22;10183;47.808;9.476;2022-09-02T06:15:07;11.50;99.90
20045;DHT22;10183;47.808;9.476;2022-09-02T06:17:35;11.50;99.90
20045;DHT22;10183;47.808;9.476;2022-09-02T06:20:01;11.60;99.90
20045;DHT22;10183;47.808;9.476;2022-09-02T06:22:28;11.70;99.90
20045;DHT22;10183;47.808;9.476;2022-09-02T06:24:54;11.70;99.90
20045;DHT22;10183;47.808;9.476;2022-09-02T06:27:20;11.80;99.90
20045;DHT22;10183;47.808;9.476;2022-09-02T06:29:46;11.80;99.90
20045;DHT22;10183;47.808;9.476;2022-09-02T06:32:12;11.80;99.90
20045;DHT22;10183;47.808;9.476;2022-09-02T06:34:39;11.90;99.90
20045;DHT22;10183;47.808;9.476;2022-09-02T06:37:05;12.00;99.90
20045;DHT22;10183;47.808;9.476;2022-09-02T06:39:31;12.20;99.90
20045;DHT22;10183;47.808;9.476;2022-09-02T06:41:58;12.30;99.90
20045;DHT22;10183;47.808;9.476;2022-09-02T06:44:24;12.50;99.90
20045;DHT22;10183;47.808;9.476;2022-09-02T06:46:56;12.60;99.90
20045;DHT22;10183;47.808;9.476;2022-09-02T06:49:24;12.70;99.90
20045;DHT22;10183;47.808;9.476;2022-09-02T06:51:52;12.80;99.90
20045;DHT22;10183;47.808;9.476;2022-09-02T06:54:20;13.00;99.90
20045;DHT22;10183;47.808;9.476;2022-09-02T06:56:48;13.10;99.90
20045;DHT22;10183;47.808;9.476;2022-09-02T06:59:15;13.20;99.90
20045;DHT22;10183;47.808;9.476;2022-09-02T07:01:42;13.30;99.90
20045;DHT22;10183;47.808;9.476;2022-09-02T07:04:09;13.40;99.90
20045;DHT22;10183;47.808;9.476;2022-09-02T07:06:54;13.40;99.90
20045;DHT22;10183;47.808;9.476;2022-09-02T07:09:24;13.60;99.90
20045;DHT22;10183;47.808;9.476;2022-09-02T07:12:01;13.70;99.90
20045;DHT22;10183;47.808;9.476;2022-09-02T07:14:27;13.80;99.90
20045;DHT22;10183;47.808;9.476;2022-09-02T07:16:55;13.90;99.90
20045;DHT22;10183;47.808;9.476;2022-09-02T07:19:22;14.00;99.90
20045;DHT22;10183;47.808;9.476;2022-09-02T07:21:50;14.10;99.90
20045;DHT22;10183;47.808;9.476;2022-09-02T07:24:16;14.20;99.90
20045;DHT22;10183;47.808;9.476;2022-09-02T07:26:43;14.30;99.90
20045;DHT22;10183;47.808;9.476;2022-09-02T07:29:10;14.30;99.90
20045;DHT22;10183;47.808;9.476;2022-09-02T07:31:39;14.40;99.90
20045;DHT22;10183;47.808;9.476;2022-09-02T07:34:06;14.40;99.90
20045;DHT22;10183;47.808;9.476;2022-09-02T07:36:35;14.50;99.90
20045;DHT22;10183;47.808;9.476;2022-09-02T07:39:04;14.60;99.90
20045;DHT22;10183;47.808;9.476;2022-09-02T07:41:31;14.60;99.90
20045;DHT22;10183;47.808;9.476;2022-09-02T07:43:58;14.60;99.90
20045;DHT22;10183;47.808;9.476;2022-09-02T07:46:25;14.80;99.90
20045;DHT22;10183;47.808;9.476;2022-09-02T07:48:51;14.90;99.90
20045;DHT22;10183;47.808;9.476;2022-09-02T07:51:18;15.00;99.90
20045;DHT22;10183;47.808;9.476;2022-09-02T07:53:45;15.10;99.90
20045;DHT22;10183;47.808;9.476;2022-09-02T07:56:12;15.20;99.90
20045;DHT22;10183;47.808;9.476;2022-09-02T07:58:40;15.20;99.90
20045;DHT22;10183;47.808;9.476;2022-09-02T08:01:06;15.30;99.90
20045;DHT22;10183;47.808;9.476;2022-09-02T08:03:33;15.40;99.90
20045;DHT22;10183;47.808;9.476;2022-09-02T08:05:59;15.40;99.90
20045;DHT22;10183;47.808;9.476;2022-09-02T08:08:26;15.60;99.90
20045;DHT22;10183;47.808;9.476;2022-09-02T08:10:52;15.70;99.90
20045;DHT22;10183;47.808;9.476;2022-09-02T08:13:20;15.80;99.90
20045;DHT22;10183;47.808;9.476;2022-09-02T08:15:47;15.90;99.90
20045;DHT22;10183;47.808;9.476;2022-09-02T08:18:13;16.00;99.90
20045;DHT22;10183;47.808;9.476;2022-09-02T08:20:39;16.20;99.90
20045;DHT22;10183;47.808;9.476;2022-09-02T08:23:06;16.20;99.90
20045;DHT22;10183;47.808;9.476;2022-09-02T08:25:33;16.30;99.90
20045;DHT22;10183;47.808;9.476;2022-09-02T08:28:00;16.30;99.90
20045;DHT22;10183;47.808;9.476;2022-09-02T08:30:26;16.50;99.90
20045;DHT22;10183;47.808;9.476;2022-09-02T08:32:53;16.50;99.90
20045;DHT22;10183;47.808;9.476;2022-09-02T08:35:19;16.60;99.90
20045;DHT22;10183;47.808;9.476;2022-09-02T08:37:45;16.60;99.90
20045;DHT22;10183;47.808;9.476;2022-09-02T08:40:18;16.60;99.90
20045;DHT22;10183;47.808;9.476;2022-09-02T08:42:48;16.70;99.90
20045;DHT22;10183;47.808;9.476;2022-09-02T08:45:24;16.80;99.90
20045;DHT22;10183;47.808;9.476;2022-09-02T08:48:21;17.00;99.90
20045;DHT22;10183;47.808;9.476;2022-09-02T08:50:57;17.00;99.90
20045;DHT22;10183;47.808;9.476;2022-09-02T08:53:39;17.10;99.90
20045;DHT22;10183;47.808;9.476;2022-09-02T08:56:09;17.10;99.90
20045;DHT22;10183;47.808;9.476;2022-09-02T08:58:43;17.20;99.90
20045;DHT22;10183;47.808;9.476;2022-09-02T09:15:28;18.00;99.90
20045;DHT22;10183;47.808;9.476;2022-09-02T09:17:59;18.10;99.90
20045;DHT22;10183;47.808;9.476;2022-09-02T09:20:30;18.40;99.90
20045;DHT22;10183;47.808;9.476;2022-09-02T09:23:00;18.50;99.90
20045;DHT22;10183;47.808;9.476;2022-09-02T09:25:28;18.60;99.90
20045;DHT22;10183;47.808;9.476;2022-09-02T09:27:58;18.80;99.90
20045;DHT22;10183;47.808;9.476;2022-09-02T09:30:25;18.90;99.90
20045;DHT22;10183;47.808;9.476;2022-09-02T09:32:53;18.90;99.90
20045;DHT22;10183;47.808;9.476;2022-09-02T09:35:20;18.90;99.90
20045;DHT22;10183;47.808;9.476;2022-09-02T09:37:51;18.90;99.90
20045;DHT22;10183;47.808;9.476;2022-09-02T09:42:53;19.20;99.90
20045;DHT22;10183;47.808;9.476;2022-09-02T09:45:39;19.20;99.90
20045;DHT22;10183;47.808;9.476;2022-09-02T09:50:46;19.40;99.90
20045;DHT22;10183;47.808;9.476;2022-09-02T09:53:27;19.70;99.90
20045;DHT22;10183;47.808;9.476;2022-09-02T09:55:57;19.20;99.90
20045;DHT22;10183;47.808;9.476;2022-09-02T09:58:43;19.50;99.90
20045;DHT22;10183;47.808;9.476;2022-09-02T10:12:05;19.70;99.90
20045;DHT22;10183;47.808;9.476;2022-09-02T10:14:49;20.10;99.90
20045;DHT22;10183;47.808;9.476;2022-09-02T10:20:37;20.70;99.90
20045;DHT22;10183;47.808;9.476;2022-09-02T10:25:58;20.90;99.90
20045;DHT22;10183;47.808;9.476;2022-09-02T10:28:43;21.20;99.90
20045;DHT22;10183;47.808;9.476;2022-09-02T10:34:23;21.60;99.90
20045;DHT22;10183;47.808;9.476;2022-09-02T10:42:32;21.90;99.90
20045;DHT22;10183;47.808;9.476;2022-09-02T10:45:07;21.90;99.90
20045;DHT22;10183;47.808;9.476;2022-09-02T10:47:38;22.00;99.90
20045;DHT22;10183;47.808;9.476;2022-09-02T10:58:02;22.60;99.90
20045;DHT22;10183;47.808;9.476;2022-09-02T11:00:30;22.50;99.90
20045;DHT22;10183;47.808;9.476;2022-09-02T11:03:05;22.70;99.90
20045;DHT22;10183;47.808;9.476;2022-09-02T11:05:42;23.10;99.90
20045;DHT22;10183;47.808;9.476;2022-09-02T11:08:38;23.30;99.90
20045;DHT22;10183;47.808;9.476;2022-09-02T11:11:35;23.40;99.90
20045;DHT22;10183;47.808;9.476;2022-09-02T11:14:26;23.60;99.90
20045;DHT22;10183;47.808;9.476;2022-09-02T11:17:06;23.20;99.90
20045;DHT22;10183;47.808;9.476;2022-09-02T11:19:45;22.80;99.90
20045;DHT22;10183;47.808;9.476;2022-09-02T11:22:36;23.20;99.90
20045;DHT22;10183;47.808;9.476;2022-09-02T11:25:20;23.50;99.90
20045;DHT22;10183;47.808;9.476;2022-09-02T11:30:48;23.80;99.90
20045;DHT22;10183;47.808;9.476;2022-09-02T11:35:45;24.10;99.90
20045;DHT22;10183;47.808;9.476;2022-09-02T11:41:27;24.70;99.90
20045;DHT22;10183;47.808;9.476;2022-09-02T11:54:30;25.50;99.90
20045;DHT22;10183;47.808;9.476;2022-09-02T11:57:00;25.80;99.90
20045;DHT22;10183;47.808;9.476;2022-09-02T12:08:06;26.10;99.90
20045;DHT22;10183;47.808;9.476;2022-09-02T12:18:47;27.20;99.90
20045;DHT22;10183;47.808;9.476;2022-09-02T12:21:34;25.90;99.90
20045;DHT22;10183;47.808;9.476;2022-09-02T12:31:48;27.60;99.90
20045;DHT22;10183;47.808;9.476;2022-09-02T12:36:51;26.80;99.90
20045;DHT22;10183;47.808;9.476;2022-09-02T12:44:48;30.00;99.90
20045;DHT22;10183;47.808;9.476;2022-09-02T12:50:51;33.70;71.00
20045;DHT22;10183;47.808;9.476;2022-09-02T12:58:33;37.40;54.50
20045;DHT22;10183;47.808;9.476;2022-09-02T13:04:11;34.50;60.00
20045;DHT22;10183;47.808;9.476;2022-09-02T13:15:30;40.50;40.70
20045;DHT22;10183;47.808;9.476;2022-09-02T13:32:14;44.20;34.40
20045;DHT22;10183;47.808;9.476;2022-09-02T13:34:50;44.20;31.30
20045;DHT22;10183;47.808;9.476;2022-09-02T13:37:36;43.60;32.50
20045;DHT22;10183;47.808;9.476;2022-09-02T13:42:49;43.70;32.70
20045;DHT22;10183;47.808;9.476;2022-09-02T13:45:21;44.00;31.10
20045;DHT22;10183;47.808;9.476;2022-09-02T13:47:50;42.80;30.40
20045;DHT22;10183;47.808;9.476;2022-09-02T13:50:20;42.70;31.90
20045;DHT22;10183;47.808;9.476;2022-09-02T13:52:53;41.80;32.00
20045;DHT22;10183;47.808;9.476;2022-09-02T13:55:20;42.60;33.00
20045;DHT22;10183;47.808;9.476;2022-09-02T13:57:58;42.90;30.80
20045;DHT22;10183;47.808;9.476;2022-09-02T14:00:31;41.40;32.50
20045;DHT22;10183;47.808;9.476;2022-09-02T14:05:30;42.20;31.90
20045;DHT22;10183;47.808;9.476;2022-09-02T14:08:01;43.40;30.60
20045;DHT22;10183;47.808;9.476;2022-09-02T14:10:29;44.20;29.60
20045;DHT22;10183;47.808;9.476;2022-09-02T14:12:57;44.50;29.60
20045;DHT22;10183;47.808;9.476;2022-09-02T14:15:28;43.90;29.70
20045;DHT22;10183;47.808;9.476;2022-09-02T14:20:59;43.80;28.20
20045;DHT22;10183;47.808;9.476;2022-09-02T14:23:28;43.60;28.40
20045;DHT22;10183;47.808;9.476;2022-09-02T14:25:57;43.90;28.80
20045;DHT22;10183;47.808;9.476;2022-09-02T14:28:29;43.10;30.20
20045;DHT22;10183;47.808;9.476;2022-09-02T14:31:07;43.40;28.50
20045;DHT22;10183;47.808;9.476;2022-09-02T14:33:43;44.30;27.70
20045;DHT22;10183;47.808;9.476;2022-09-02T14:38:53;40.50;31.90
20045;DHT22;10183;47.808;9.476;2022-09-02T14:41:24;41.90;30.40
20045;DHT22;10183;47.808;9.476;2022-09-02T14:43:56;42.60;29.80
20045;DHT22;10183;47.808;9.476;2022-09-02T14:46:28;43.70;28.60
20045;DHT22;10183;47.808;9.476;2022-09-02T14:49:03;44.60;27.90
20045;DHT22;10183;47.808;9.476;2022-09-02T14:54:02;44.80;27.60
20045;DHT22;10183;47.808;9.476;2022-09-02T14:59:10;43.70;26.90
20045;DHT22;10183;47.808;9.476;2022-09-02T15:01:40;37.30;28.60
20045;DHT22;10183;47.808;9.476;2022-09-02T15:04:08;38.20;34.00
20045;DHT22;10183;47.808;9.476;2022-09-02T15:06:35;38.90;33.00
20045;DHT22;10183;47.808;9.476;2022-09-02T15:09:01;40.10;31.30
20045;DHT22;10183;47.808;9.476;2022-09-02T15:11:27;40.60;30.80
20045;DHT22;10183;47.808;9.476;2022-09-02T15:13:53;40.80;29.40
20045;DHT22;10183;47.808;9.476;2022-09-02T15:16:19;40.40;30.30
20045;DHT22;10183;47.808;9.476;2022-09-02T15:18:45;35.80;35.80
20045;DHT22;10183;47.808;9.476;2022-09-02T15:21:11;36.30;36.70
20045;DHT22;10183;47.808;9.476;2022-09-02T15:23:38;36.80;36.60
20045;DHT22;10183;47.808;9.476;2022-09-02T15:26:06;36.80;36.60
20045;DHT22;10183;47.808;9.476;2022-09-02T15:28:33;36.60;36.60
20045;DHT22;10183;47.808;9.476;2022-09-02T15:31:00;36.10;37.50
20045;DHT22;10183;47.808;9.476;2022-09-02T15:33:27;35.70;38.90
20045;DHT22;10183;47.808;9.476;2022-09-02T15:35:54;35.60;40.30
20045;DHT22;10183;47.808;9.476;2022-09-02T15:38:29;35.40;40.20
20045;DHT22;10183;47.808;9.476;2022-09-02T15:40:55;35.50;40.30
20045;DHT22;10183;47.808;9.476;2022-09-02T15:43:21;36.30;40.30
20045;DHT22;10183;47.808;9.476;2022-09-02T15:45:48;36.40;38.70
20045;DHT22;10183;47.808;9.476;2022-09-02T15:48:14;36.10;37.70
20045;DHT22;10183;47.808;9.476;2022-09-02T15:50:40;35.70;39.20
20045;DHT22;10183;47.808;9.476;2022-09-02T15:53:06;35.50;38.80
20045;DHT22;10183;47.808;9.476;2022-09-02T15:55:33;35.30;39.90
20045;DHT22;10183;47.808;9.476;2022-09-02T15:57:59;34.70;39.90
20045;DHT22;10183;47.808;9.476;2022-09-02T16:00:26;31.90;45.40
20045;DHT22;10183;47.808;9.476;2022-09-02T16:02:52;30.70;49.90
20045;DHT22;10183;47.808;9.476;2022-09-02T16:05:18;29.60;55.80
20045;DHT22;10183;47.808;9.476;2022-09-02T16:07:46;28.20;66.40
20045;DHT22;10183;47.808;9.476;2022-09-02T16:10:13;27.20;80.30
20045;DHT22;10183;47.808;9.476;2022-09-02T16:12:40;26.20;93.90
20045;DHT22;10183;47.808;9.476;2022-09-02T16:15:07;25.60;99.90
20045;DHT22;10183;47.808;9.476;2022-09-02T16:17:33;24.60;99.90
20045;DHT22;10183;47.808;9.476;2022-09-02T16:19:59;24.30;99.90
20045;DHT22;10183;47.808;9.476;2022-09-02T16:22:25;24.10;99.90
20045;DHT22;10183;47.808;9.476;2022-09-02T16:24:51;23.90;99.90
20045;DHT22;10183;47.808;9.476;2022-09-02T16:27:17;23.70;99.90
20045;DHT22;10183;47.808;9.476;2022-09-02T16:30:04;23.30;99.90
20045;DHT22;10183;47.808;9.476;2022-09-02T16:32:30;23.10;99.90
20045;DHT22;10183;47.808;9.476;2022-09-02T16:34:56;22.90;99.90
20045;DHT22;10183;47.808;9.476;2022-09-02T16:37:23;22.90;99.90
20045;DHT22;10183;47.808;9.476;2022-09-02T16:39:49;22.70;99.90
20045;DHT22;10183;47.808;9.476;2022-09-02T16:42:16;22.60;99.90
20045;DHT22;10183;47.808;9.476;2022-09-02T16:44:42;22.50;99.90
20045;DHT22;10183;47.808;9.476;2022-09-02T16:47:09;22.30;99.90
20045;DHT22;10183;47.808;9.476;2022-09-02T16:49:35;22.30;99.90
20045;DHT22;10183;47.808;9.476;2022-09-02T16:52:01;22.20;99.90
20045;DHT22;10183;47.808;9.476;2022-09-02T16:54:27;22.10;99.90
20045;DHT22;10183;47.808;9.476;2022-09-02T16:56:54;22.00;99.90
20045;DHT22;10183;47.808;9.476;2022-09-02T16:59:20;21.90;99.90
20045;DHT22;10183;47.808;9.476;2022-09-02T17:01:46;21.80;99.90
20045;DHT22;10183;47.808;9.476;2022-09-02T17:04:12;21.70;99.90
20045;DHT22;10183;47.808;9.476;2022-09-02T17:06:39;21.60;99.90
20045;DHT22;10183;47.808;9.476;2022-09-02T17:09:05;21.40;99.90
20045;DHT22;10183;47.808;9.476;2022-09-02T17:11:33;21.40;99.90
20045;DHT22;10183;47.808;9.476;2022-09-02T17:14:07;21.30;99.90
20045;DHT22;10183;47.808;9.476;2022-09-02T17:16:45;21.10;99.90
20045;DHT22;10183;47.808;9.476;2022-09-02T17:19:12;20.90;99.90
20045;DHT22;10183;47.808;9.476;2022-09-02T17:21:47;20.70;99.90
20045;DHT22;10183;47.808;9.476;2022-09-02T17:24:16;20.60;99.90
20045;DHT22;10183;47.808;9.476;2022-09-02T17:26:46;20.50;99.90
20045;DHT22;10183;47.808;9.476;2022-09-02T17:29:15;20.40;99.90
20045;DHT22;10183;47.808;9.476;2022-09-02T17:31:42;19.80;99.90
20045;DHT22;10183;47.808;9.476;2022-09-02T17:34:09;19.30;99.90
20045;DHT22;10183;47.808;9.476;2022-09-02T17:36:36;19.10;99.90
20045;DHT22;10183;47.808;9.476;2022-09-02T17:39:17;19.00;99.90
20045;DHT22;10183;47.808;9.476;2022-09-02T17:41:44;19.00;99.90
20045;DHT22;10183;47.808;9.476;2022-09-02T17:44:25;19.10;99.90
20045;DHT22;10183;47.808;9.476;2022-09-02T17:46:52;19.20;99.90
20045;DHT22;10183;47.808;9.476;2022-09-02T17:49:20;19.30;99.90
20045;DHT22;10183;47.808;9.476;2022-09-02T17:51:47;19.30;99.90
20045;DHT22;10183;47.808;9.476;2022-09-02T17:54:14;19.30;99.90
20045;DHT22;10183;47.808;9.476;2022-09-02T18:10:01;18.70;99.90
20045;DHT22;10183;47.808;9.476;2022-09-02T18:12:27;18.60;99.90
20045;DHT22;10183;47.808;9.476;2022-09-02T18:14:57;18.50;99.90
20045;DHT22;10183;47.808;9.476;2022-09-02T18:30:40;18.50;99.90
20045;DHT22;10183;47.808;9.476;2022-09-02T18:38:45;18.20;99.90
20045;DHT22;10183;47.808;9.476;2022-09-02T18:44:28;18.20;99.90
20045;DHT22;10183;47.808;9.476;2022-09-02T18:47:19;18.20;99.90
20045;DHT22;10183;47.808;9.476;2022-09-02T18:49:53;18.20;99.90
20045;DHT22;10183;47.808;9.476;2022-09-02T18:52:24;18.00;99.90
20045;DHT22;10183;47.808;9.476;2022-09-02T18:55:13;18.00;99.90
20045;DHT22;10183;47.808;9.476;2022-09-02T18:57:53;18.00;99.90